Portada
METAR-TAF:

METAR-TAF

Aeroports :

Koror, Babeldaob, Palau

latitud: 07-22N, longitud: 134-32E, altitud: 54 m

Observació

L'informe es va fer fa 40 minuts, a les 14:50 UTC
Vent 5 kt del Est/Nord-Est
Temperatura 27°C
Humitat 84%
Pressió 1011 hPa
Visibilitat: 22.5 km
Núvols disperses a una alçada de 1600 ft
Cel ennuvolat a una alçada de 11000 ft
Cel ennuvolat a una alçada de 29000 ft

METAR: PTRO 011450Z 07005KT 14SM SCT016 BKN110 BKN290 27/24 A2985

Hora: 00:30 (15:30 UTC)

Pronòstic

L'informe es va fer fa 4 hores i 0 minuts, a les 11:30 UTC
Pronòstic vàlid del 01 a les 12 UTC al 02 a les 12 UTC
Vent 11 kt del Est/Nord-Est
Visibilitat: 10 km
Escasses núvols a una alçada de 1800 ft
Núvols disperses a una alçada de 5000 ft

TAF: PTRO 011130Z 0112/0212 06011KT P6SM FEW018 SCT050

Observacions i pronòstics meteorològics de més de 4000 aeroports (METAR i TAF).

Les estacions disponibles són els punts grocs i vermells al mapa.

Posi el ratolí al punt desitjat per veure el nom de l'estació.

Feu clic per veure les observacions i els pronòstics meteorològics.

Per canviar el mapa: feu clic els botons verds amb una creu de color negre per apropar; al botó verd amb un guió per allunyar la imatge; o en les fletxes verdes per a mapes adjacents.


METAR-TAF: